Arendahl, MN

2:30 PM CDT on July 22, 2014 (GMT -0500)
500 Nannestad Lane (KMNRUSHF2) Elev 728 ft | 43.81 °N, 91.75 °W | Change Station

Current weather conditions updated 11 minutes ago

Clear
Clear
87.4 °F
Feels Like 93 °F
N
8.3
Wind Variable Wind from West

Today is forecast to be nearly the same temperature as yesterday.

Today
High -- | Low -- °F
--% Chance of Precip.
Yesterday
High -- | Low -- °F
Precip. -- in
5:45 AM 8:41 PM
Waning Crescent, 15% visible
Pressure 30.02 in
Visibility 10.0 miles
Clouds Scattered Clouds 3000 ft
Heat Index 93 °F
Dew Point 70 °F
Humidity 57%
Rainfall 0.00 in
Snow Depth Not available.
UV 8 out of 12
Pollen 2.90 out of 12
Air Quality Not available.
Flu Activity Sporadic
METAR KFKA 221911Z AUTO 32011G15KT 10SM SCT030 28/23 A3002 RMK AO2 T02750226

More Conditions Fewer Conditions

Pressure 30.02 in
Visibility 10.0 miles
Clouds Scattered Clouds 3000 ft
Heat Index 93 °F
Dew Point 70 °F
Humidity 57%
Rainfall 0.00 in
Snow Depth Not available.
UV 8 out of 12
Pollen 2.90 out of 12
Air Quality Not available.
Flu Activity Sporadic
METAR KFKA 221911Z AUTO 32011G15KT 10SM SCT030 28/23 A3002 RMK AO2 T02750226

More Conditions Fewer Conditions

10-Day Weather Forecast

Almanac

Astronomy

Jul. 22, 2014 Rise Set
Actual Time 5:45 AM CDT 8:41 PM CDT
Civil Twilight 5:11 AM CDT 9:15 PM CDT
Nautical Twilight 4:28 AM CDT 9:58 PM CDT
Astronomical Twilight 3:37 AM CDT 10:48 PM CDT
Moon 2:20 AM CDT 5:18 PM CDT
Length of Visible Light 16h 03m
Length of Day
14h 55m
Tomorrow will be 1m 56s shorter.
Waning Crescent, 15% of the Moon is Illuminated
Today
Waning Crescent
Jul 26
New
Aug 3
First Quarter
Aug 10
Full
Aug 17
Last Quarter

Today's Extremes

State Highs State Lows

Community

WunderPhotos

Upload Photos

1,736,338 photos uploaded!

Nearby

Snow Depth

Station Depth Elevation
No new snow has been reported.

Earthquake Activity

City Distance Mag. Time & Date
No recent earthquake activity has been reported nearby.
Minimum magnitude displayed is 2.5.

Coastal Water Temperatures

Place Temperature
No Stations Reporting

Nearby Weather Stations

Station Location Temp. Heat Index Dew Point Humidity Wind Precip. Elev Updated Type
500 Nannestad Lane, Rushford, MN 87.4 °F 93 °F 70 °F 57% West  at  8.3 mph - / hr 728 ft 2:18 PM CDT Normal
Enterprise Valley, Lewiston, MN 89.6 °F 98 °F 73 °F 58% NNW  at  3.7 mph - / hr 1135 ft 2:24 PM CDT Normal
Minnesota, Altura, MN 82.4 °F 84 °F 65 °F 56% NW  at  8.3 mph 0.00 in / hr 1165 ft 2:29 PM CDT Rapid Fire

Show More Stations Show Fewer Stations